Time;durP1;ratioP1;P1;durP2;ratioP2;P2;SDS_P1;SDS_P2;PMS_P1;PMS_P2;Temp;Humidity;BMP_temperature;BMP_pressure;BME280_temperature;BME280_humidity;BME280_pressure;Samples;Min_cycle;Max_cycle;Signal;HPM_P1;HPM_P2
2023/01/09 00:00:45;;;;;;;40.27;29.23;;;;;;;2.95;60.03;100151.31;5095317;28;20104;-80
2023/01/09 00:03:11;;;;;;;46.00;30.13;;;;;;;2.85;59.80;100147.72;5095053;28;20051;-80
2023/01/09 00:05:36;;;;;;;39.27;28.10;;;;;;;2.62;60.16;100120.75;5094221;28;20023;-80
2023/01/09 00:08:02;;;;;;;43.13;26.60;;;;;;;1.25;59.98;99892.03;5094315;28;20106;-80
2023/01/09 00:10:27;;;;;;;39.57;28.97;;;;;;;1.90;59.81;100028.78;5094200;28;20045;-79
2023/01/09 00:12:52;;;;;;;37.47;25.53;;;;;;;2.19;59.89;100039.66;5094071;28;20040;-80
2023/01/09 00:15:18;;;;;;;39.60;26.67;;;;;;;2.82;60.34;100130.53;5094158;28;20416;-79
2023/01/09 00:17:43;;;;;;;35.03;28.07;;;;;;;2.96;59.59;100154.75;5094533;28;20034;-80
2023/01/09 00:20:10;;;;;;;39.50;28.83;;;;;;;2.99;59.91;100155.38;5094598;28;20106;-79
2023/01/09 00:22:36;;;;;;;41.97;28.30;;;;;;;3.03;60.04;100162.03;5094493;28;20031;-79
2023/01/09 00:25:03;;;;;;;35.30;26.23;;;;;;;2.11;59.48;100008.16;5094117;28;20012;-80
2023/01/09 00:27:33;;;;;;;35.07;25.23;;;;;;;2.77;59.64;100134.44;5094122;28;20027;-80
2023/01/09 00:29:58;;;;;;;37.50;26.40;;;;;;;2.97;59.48;100157.25;5095183;28;20028;-79
2023/01/09 00:32:24;;;;;;;40.20;27.10;;;;;;;1.52;59.22;99923.06;5095807;28;20024;-80
2023/01/09 00:34:50;;;;;;;36.30;26.40;;;;;;;2.19;59.40;100035.28;5096087;28;20024;-80
2023/01/09 00:37:15;;;;;;;34.97;24.83;;;;;;;2.04;59.69;100014.75;5096322;28;20108;-80
2023/01/09 00:39:41;;;;;;;34.70;24.20;;;;;;;2.45;59.76;100093.31;5096582;28;20024;-80
2023/01/09 00:42:13;;;;;;;37.33;25.17;;;;;;;2.13;59.26;100035.75;5097711;28;20016;-80
2023/01/09 00:44:44;;;;;;;38.45;27.40;;;;;;;2.26;59.15;100027.88;5096890;28;20069;-79
2023/01/09 00:47:16;;;;;;;39.97;29.27;;;;;;;2.99;59.21;100147.56;5092716;28;20032;-80
2023/01/09 00:49:43;;;;;;;42.40;31.13;;;;;;;2.98;59.13;100134.63;5093464;28;20020;-80
2023/01/09 00:52:11;;;;;;;38.97;29.00;;;;;;;2.18;59.32;100006.75;5092922;28;20027;-80
2023/01/09 00:54:38;;;;;;;34.97;25.87;;;;;;;2.57;59.51;100072.50;5091708;28;20488;-80
2023/01/09 00:57:03;;;;;;;34.30;25.60;;;;;;;2.14;59.67;100019.16;5093158;28;20028;-80
2023/01/09 00:59:29;;;;;;;74.27;44.97;;;;;;;2.49;59.86;100076.53;5091954;28;20404;-80
2023/01/09 01:01:54;;;;;;;57.63;36.40;;;;;;;2.84;59.34;100125.22;5093279;28;20048;-80
2023/01/09 01:09:47;;;;;;;35.53;25.77;;;;;;;2.42;59.32;100033.63;5093327;28;20412;-80
2023/01/09 01:12:13;;;;;;;36.47;28.10;;;;;;;1.94;58.92;99943.44;5092652;28;20040;-80
2023/01/09 01:14:39;;;;;;;33.00;25.10;;;;;;;2.59;59.24;100060.19;5092705;28;20034;-80
2023/01/09 01:17:05;;;;;;;32.90;23.40;;;;;;;2.95;59.28;100113.97;5092838;28;20044;-80
2023/01/09 01:19:33;;;;;;;34.57;25.33;;;;;;;2.95;59.36;100119.19;5092910;28;20028;-80
2023/01/09 01:21:58;;;;;;;33.10;24.37;;;;;;;1.96;59.09;99954.59;5092936;28;20016;-80
2023/01/09 01:24:24;;;;;;;31.63;24.13;;;;;;;2.50;59.45;100046.06;5092754;28;20093;-80
2023/01/09 01:26:49;;;;;;;29.60;24.57;;;;;;;2.67;59.21;100063.88;5092796;28;20107;-79
2023/01/09 01:29:15;;;;;;;33.20;25.07;;;;;;;2.02;59.29;99995.78;5091586;28;20031;-80
2023/01/09 01:31:40;;;;;;;30.43;24.13;;;;;;;2.51;59.72;100059.00;5092587;28;20385;-80
2023/01/09 01:34:05;;;;;;;58.97;35.10;;;;;;;2.39;59.26;100048.66;5092459;28;20020;-79
2023/01/09 01:36:32;;;;;;;35.97;26.50;;;;;;;1.82;59.31;99960.81;5092379;28;20051;-80
2023/01/09 01:38:57;;;;;;;35.83;26.87;;;;;;;1.99;58.93;100002.06;5092399;28;20020;-79
2023/01/09 01:41:29;;;;;;;33.67;25.93;;;;;;;2.20;59.17;100021.31;5092613;28;20068;-79
2023/01/09 01:43:56;;;;;;;35.00;23.67;;;;;;;2.61;59.56;100071.34;5091358;28;20481;-80
2023/01/09 01:46:22;;;;;;;35.37;26.40;;;;;;;2.45;58.83;100066.44;5091109;28;20028;-80
2023/01/09 01:48:52;;;;;;;41.70;27.17;;;;;;;2.59;59.17;100068.03;5092587;28;20031;-80
2023/01/09 01:51:20;;;;;;;40.27;28.83;;;;;;;1.71;59.17;99947.75;5091615;28;20021;-79
2023/01/09 01:53:52;;;;;;;37.50;26.90;;;;;;;2.48;59.15;100076.63;5090738;28;20114;-79
2023/01/09 01:56:23;;;;;;;;;;;;;;;2.32;59.25;100074.31;5092727;28;20592;-80
2023/01/09 01:58:54;;;;;;;35.03;24.13;;;;;;;2.38;59.42;100073.88;5092363;28;19907;-80
2023/01/09 02:01:23;;;;;;;36.67;25.50;;;;;;;1.77;59.34;99994.97;5090928;28;20039;-79
2023/01/09 02:03:51;;;;;;;35.60;24.40;;;;;;;2.08;58.89;100008.38;5092543;28;20099;-79
2023/01/09 02:06:17;;;;;;;34.93;26.67;;;;;;;2.36;59.50;100057.53;5092137;28;20099;-80
2023/01/09 02:08:42;;;;;;;35.07;25.03;;;;;;;1.99;59.46;99994.25;5092144;28;20099;-79
2023/01/09 02:11:08;;;;;;;61.50;36.20;;;;;;;2.04;59.40;100007.75;5091972;28;20446;-80
2023/01/09 02:13:37;;;;;;;38.90;27.60;;;;;;;1.69;59.16;99958.28;5091554;28;20040;-80
2023/01/09 02:16:27;;;;;;;32.13;23.87;;;;;;;2.46;59.53;100066.31;5091949;28;20032;-79
2023/01/09 02:19:03;;;;;;;34.87;24.57;;;;;;;2.49;59.50;100066.09;5090614;28;20023;-80
2023/01/09 02:22:13;;;;;;;31.73;23.67;;;;;;;1.69;59.19;99942.66;5092050;28;20019;-79
2023/01/09 02:25:00;;;;;;;31.93;23.00;;;;;;;2.41;59.33;100065.00;5081869;28;20641;-79
2023/01/09 02:28:03;;;;;;;32.43;24.40;;;;;;;2.46;59.18;100061.09;5092021;28;20027;-80
2023/01/09 02:30:45;;;;;;;35.10;23.83;;;;;;;2.27;58.96;100023.50;5092221;28;20020;-80
2023/01/09 02:33:13;;;;;;;34.47;25.15;;;;;;;2.50;59.31;100056.50;5090596;28;20020;-80
2023/01/09 02:35:41;;;;;;;28.57;21.53;;;;;;;2.53;59.35;100053.66;5090344;28;20029;-80
2023/01/09 02:38:22;;;;;;;33.80;24.27;;;;;;;2.59;59.40;100047.16;5090432;28;20056;-80
2023/01/09 02:41:13;;;;;;;27.07;21.73;;;;;;;2.18;59.22;99965.91;5091963;28;20488;-79
2023/01/09 02:43:40;;;;;;;30.87;21.43;;;;;;;2.21;59.05;99996.09;5092000;28;20081;-80
2023/01/09 02:46:10;;;;;;;30.87;23.07;;;;;;;2.73;59.00;100039.97;5091651;28;20016;-80
2023/01/09 02:48:44;;;;;;;31.77;22.93;;;;;;;2.25;58.88;99962.88;5091924;28;20515;-80
2023/01/09 02:51:18;;;;;;;28.27;21.93;;;;;;;1.89;58.81;99913.38;5092085;28;20020;-80
2023/01/09 02:53:56;;;;;;;29.50;22.37;;;;;;;2.71;58.88;100034.03;5092490;28;20032;-80
2023/01/09 02:56:51;;;;;;;33.50;23.53;;;;;;;2.03;59.23;99920.16;5091485;28;20119;-79
2023/01/09 02:59:22;;;;;;;30.67;22.50;;;;;;;2.63;59.30;100039.00;5092879;28;20027;-80
2023/01/09 03:02:22;;;;;;;29.50;23.90;;;;;;;2.69;58.61;100030.72;5091365;28;20028;-80
2023/01/09 03:04:54;;;;;;;32.90;23.40;;;;;;;2.69;58.92;100025.50;5095535;28;20081;-79
2023/01/09 03:07:27;;;;;;;33.55;24.20;;;;;;;2.73;59.38;100023.50;5095091;28;20035;-80
2023/01/09 03:10:00;;;;;;;33.77;24.23;;;;;;;2.71;59.35;100022.78;5095084;28;20032;-80
2023/01/09 03:12:31;;;;;;;33.73;23.53;;;;;;;2.49;59.18;99992.28;5095416;28;20093;-79
2023/01/09 03:15:00;;;;;;;35.80;26.77;;;;;;;2.25;58.75;99942.84;5095281;28;20024;-79
2023/01/09 03:17:38;;;;;;;37.77;25.83;;;;;;;2.66;58.98;100004.88;5095935;28;20125;-79
2023/01/09 03:20:07;;;;;;;43.23;28.23;;;;;;;1.91;58.59;99880.25;5098632;28;20020;-79
2023/01/09 03:22:33;;;;;;;30.23;25.17;;;;;;;2.43;58.99;99992.75;5100016;28;20020;-79
2023/01/09 03:24:58;;;;;;;36.83;27.40;;;;;;;2.05;59.02;99933.91;5100489;28;20051;-79
2023/01/09 03:27:24;;;;;;;33.00;24.73;;;;;;;2.12;59.08;99944.69;5099263;28;20461;-79
2023/01/09 03:29:52;;;;;;;30.80;23.23;;;;;;;1.92;58.88;99907.13;5100640;28;20540;-79
2023/01/09 03:32:17;;;;;;;36.23;25.63;;;;;;;2.20;58.74;99942.34;5098915;28;20081;-80
2023/01/09 03:34:43;;;;;;;39.03;27.83;;;;;;;2.07;58.64;99946.81;5094887;28;20020;-79
2023/01/09 03:37:08;;;;;;;41.67;26.67;;;;;;;2.47;58.58;99981.97;5094949;28;20023;-80
2023/01/09 03:39:33;;;;;;;38.13;26.30;;;;;;;2.17;58.45;99974.66;5094899;28;20099;-79
2023/01/09 03:41:59;;;;;;;39.30;27.03;;;;;;;0.38;58.49;99653.16;5095139;28;20028;-79
2023/01/09 03:44:24;;;;;;;34.03;23.80;;;;;;;1.75;58.62;99869.31;5095399;28;20052;-79
2023/01/09 03:46:50;;;;;;;32.00;23.33;;;;;;;2.42;58.54;99984.09;5097002;28;20020;-80
2023/01/09 03:49:16;;;;;;;34.17;24.77;;;;;;;2.34;58.78;99964.78;5097736;28;20103;-79
2023/01/09 03:51:42;;;;;;;46.67;30.67;;;;;;;2.01;58.98;99906.44;5097439;28;20072;-79
2023/01/09 03:54:07;;;;;;;45.30;30.57;;;;;;;2.83;59.17;100021.84;5097627;28;20027;-79
2023/01/09 03:56:32;;;;;;;44.77;29.03;;;;;;;2.82;59.12;100025.41;5097070;28;20088;-79
2023/01/09 03:58:58;;;;;;;59.07;32.90;;;;;;;2.10;59.04;99907.50;5097872;28;20012;-79
2023/01/09 04:01:23;;;;;;;73.93;36.03;;;;;;;1.97;59.16;99889.38;5093785;28;20481;-79
2023/01/09 04:03:49;;;;;;;76.83;40.30;;;;;;;2.84;59.63;100050.41;5095791;28;20016;-79
2023/01/09 04:06:14;;;;;;;93.53;41.83;;;;;;;2.31;60.33;99972.81;5093936;28;20020;-79
2023/01/09 04:08:40;;;;;;;99.23;42.77;;;;;;;1.76;60.42;99873.56;5095033;28;20020;-79
2023/01/09 04:11:05;;;;;;;94.63;41.37;;;;;;;2.57;61.17;100000.38;5094782;28;20028;-79
2023/01/09 04:13:30;;;;;;;103.50;42.17;;;;;;;2.14;61.30;99928.00;5094069;28;20043;-79
2023/01/09 04:15:56;;;;;;;115.77;44.60;;;;;;;2.83;61.03;100019.25;5093713;28;20501;-79
2023/01/09 04:18:21;;;;;;;123.70;48.30;;;;;;;2.14;62.00;99916.75;5094527;28;20028;-79
2023/01/09 04:20:47;;;;;;;138.10;51.83;;;;;;;2.14;61.96;99919.34;5093396;28;20023;-79
2023/01/09 04:23:13;;;;;;;138.53;53.13;;;;;;;1.92;62.69;99907.13;5094922;28;20020;-79
2023/01/09 04:25:38;;;;;;;145.93;55.17;;;;;;;2.74;62.40;100020.75;5093396;28;20098;-79
2023/01/09 04:28:04;;;;;;;156.37;54.23;;;;;;;2.37;62.62;99977.56;5094671;28;20520;-79
2023/01/09 04:30:30;;;;;;;165.07;52.67;;;;;;;2.14;63.31;99953.22;5094430;28;20028;-79
2023/01/09 04:32:55;;;;;;;159.33;53.47;;;;;;;1.86;63.51;99894.56;5094126;28;20020;-80
2023/01/09 04:35:21;;;;;;;144.10;57.50;;;;;;;2.69;63.48;100037.72;5093727;28;20046;-79
2023/01/09 04:37:46;;;;;;;182.57;55.63;;;;;;;2.39;63.84;99993.94;5093698;28;20572;-79
2023/01/09 04:40:12;;;;;;;212.27;56.53;;;;;;;1.61;63.86;99879.91;5093835;28;20103;-79
2023/01/09 04:42:39;;;;;;;159.00;56.57;;;;;;;2.04;63.91;99941.81;5093919;28;20019;-79
2023/01/09 04:45:05;;;;;;;113.77;49.97;;;;;;;2.64;64.28;100040.66;5093647;28;20024;-79
2023/01/09 04:47:31;;;;;;;127.83;52.90;;;;;;;2.39;64.27;100002.56;5092108;28;20031;-79
2023/01/09 04:49:57;;;;;;;180.13;59.17;;;;;;;0.95;64.56;99767.66;5092126;28;20013;-79
2023/01/09 04:52:23;;;;;;;157.23;61.40;;;;;;;2.16;64.13;99951.34;5091808;28;20030;-79
2023/01/09 04:54:48;;;;;;;151.80;49.57;;;;;;;1.90;64.30;99925.44;5092956;28;20029;-79
2023/01/09 04:57:13;;;;;;;124.17;48.77;;;;;;;2.27;64.25;99997.44;5093252;28;20020;-79
2023/01/09 04:59:39;;;;;;;130.73;51.47;;;;;;;2.12;64.73;99957.72;5093174;28;20027;-79
2023/01/09 05:02:04;;;;;;;123.10;53.03;;;;;;;2.41;64.63;100010.28;5093159;28;20027;-79
2023/01/09 05:04:30;;;;;;;134.93;53.57;;;;;;;0.83;64.47;99760.75;5092907;28;20020;-79
2023/01/09 05:06:55;;;;;;;126.83;52.00;;;;;;;2.14;64.99;99992.28;5091859;28;20500;-79
2023/01/09 05:09:21;;;;;;;136.43;56.17;;;;;;;2.59;65.07;100073.22;5091840;28;20382;-79
2023/01/09 05:11:47;;;;;;;148.50;66.10;;;;;;;2.08;65.19;99990.13;5092953;28;20051;-79
2023/01/09 05:14:13;;;;;;;132.47;65.97;;;;;;;2.55;65.35;100041.34;5091347;28;20493;-79
2023/01/09 05:16:38;;;;;;;107.87;63.80;;;;;;;2.08;65.23;100004.00;5092846;28;20404;-79
2023/01/09 05:19:03;;;;;;;99.37;59.17;;;;;;;2.39;65.32;100035.63;5094683;28;20034;-79
2023/01/09 05:21:29;;;;;;;122.07;57.67;;;;;;;1.76;65.20;99925.63;5096124;28;20028;-79
2023/01/09 05:23:54;;;;;;;97.43;52.07;;;;;;;1.67;65.16;99915.91;5095985;28;20026;-79
2023/01/09 05:26:22;;;;;;;92.30;47.73;;;;;;;2.37;65.10;100035.72;5096826;28;20030;-79
2023/01/09 05:28:58;;;;;;;82.93;45.87;;;;;;;2.03;65.12;99982.66;5096850;28;20496;-79
2023/01/09 05:31:25;;;;;;;134.90;56.37;;;;;;;2.54;64.97;100040.53;5097227;28;20053;-79
2023/01/09 05:33:51;;;;;;;90.43;43.50;;;;;;;1.60;64.87;99917.28;5092081;28;20024;-79
2023/01/09 05:36:16;;;;;;;105.43;47.37;;;;;;;1.32;64.42;99853.41;5091404;28;20172;-79
2023/01/09 05:38:42;;;;;;;94.97;46.30;;;;;;;1.74;64.62;99932.72;5092559;28;20107;-79
2023/01/09 05:41:07;;;;;;;96.43;51.53;;;;;;;2.37;65.08;100014.06;5092312;28;20024;-79
2023/01/09 05:43:33;;;;;;;90.17;47.27;;;;;;;2.54;64.65;100044.91;5092341;28;20020;-79
2023/01/09 05:45:58;;;;;;;102.77;54.00;;;;;;;2.20;64.79;100004.84;5092520;28;20099;-79
2023/01/09 05:48:24;;;;;;;100.33;52.37;;;;;;;2.25;64.59;99988.91;5091144;28;20024;-79
2023/01/09 05:50:49;;;;;;;106.57;53.67;;;;;;;2.13;64.63;100003.66;5092320;28;20108;-79
2023/01/09 05:53:14;;;;;;;111.53;55.77;;;;;;;2.30;65.21;100010.25;5092299;28;20032;-79
2023/01/09 05:55:40;;;;;;;107.43;56.90;;;;;;;2.27;65.17;100013.09;5092516;28;20024;-79
2023/01/09 05:58:05;;;;;;;102.67;54.20;;;;;;;2.18;64.98;99997.16;5092390;28;20102;-79
2023/01/09 06:00:31;;;;;;;116.53;61.10;;;;;;;2.03;65.16;99980.06;5092191;28;20016;-79
2023/01/09 06:02:56;;;;;;;139.73;71.50;;;;;;;2.59;64.53;100041.94;5092814;28;20024;-79
2023/01/09 06:05:22;;;;;;;111.60;61.87;;;;;;;2.57;64.82;100060.31;5090803;28;20024;-79
2023/01/09 06:07:47;;;;;;;102.57;55.43;;;;;;;2.11;64.97;99982.94;5091975;28;20120;-79
2023/01/09 06:10:13;;;;;;;106.97;60.60;;;;;;;2.52;64.39;100046.78;5091949;28;20020;-80
2023/01/09 06:12:39;;;;;;;95.67;54.20;;;;;;;2.63;64.25;100054.63;5092423;28;20048;-79
2023/01/09 06:15:06;;;;;;;104.37;58.23;;;;;;;2.31;64.46;99997.09;5087813;28;20082;-79
2023/01/09 06:17:31;;;;;;;86.63;53.73;;;;;;;2.25;63.81;99978.50;5072788;28;20398;-79
2023/01/09 06:19:56;;;;;;;91.00;55.43;;;;;;;2.43;63.98;100034.44;5072355;28;20089;-78
2023/01/09 06:22:22;;;;;;;91.50;55.60;;;;;;;2.55;63.81;100043.97;5070716;28;20032;-79
2023/01/09 06:24:47;;;;;;;89.03;52.50;;;;;;;2.20;63.77;99994.44;5072591;28;20028;-79
2023/01/09 06:27:13;;;;;;;88.70;54.37;;;;;;;2.63;63.94;100053.81;5072700;28;20024;-80
2023/01/09 06:29:39;;;;;;;82.60;51.50;;;;;;;2.54;63.44;100053.56;5072720;28;20039;-79
2023/01/09 06:32:04;;;;;;;82.57;52.70;;;;;;;2.43;63.51;100037.88;5070715;28;20428;-79
2023/01/09 06:34:30;;;;;;;84.97;52.53;;;;;;;2.38;63.83;100049.59;5069588;28;20024;-79
2023/01/09 06:36:55;;;;;;;80.97;49.23;;;;;;;1.97;63.51;99993.53;5067568;28;20523;-80
2023/01/09 06:39:20;;;;;;;78.73;47.40;;;;;;;1.43;63.41;99915.88;5068057;28;20029;-80
2023/01/09 06:41:46;;;;;;;81.63;51.30;;;;;;;1.79;63.32;99987.06;5064574;28;20020;-80
2023/01/09 06:44:11;;;;;;;96.37;57.23;;;;;;;2.05;63.58;100012.03;5071384;28;20025;-80
2023/01/09 06:46:37;;;;;;;94.17;53.77;;;;;;;1.58;63.70;99951.25;5067459;28;20033;-80
2023/01/09 06:49:03;;;;;;;106.87;63.47;;;;;;;1.43;63.69;99913.28;5066101;28;20035;-80
2023/01/09 06:51:28;;;;;;;106.30;62.57;;;;;;;1.63;63.79;99950.06;5067871;28;20024;-80
2023/01/09 06:53:54;;;;;;;108.43;63.53;;;;;;;1.38;63.57;99894.56;5069180;28;20024;-80
2023/01/09 06:56:19;;;;;;;115.17;62.70;;;;;;;1.53;63.59;99962.91;5074112;28;20043;-79
2023/01/09 06:58:44;;;;;;;100.13;58.53;;;;;;;1.45;63.38;99908.81;5074797;28;20504;-80
2023/01/09 07:01:10;;;;;;;93.93;55.70;;;;;;;2.34;63.41;100049.00;5071887;28;20031;-79
2023/01/09 07:03:36;;;;;;;103.83;59.33;;;;;;;2.05;63.39;100019.00;5070122;28;20044;-79
2023/01/09 07:06:01;;;;;;;96.37;59.27;;;;;;;1.67;63.25;99922.88;5066637;28;20099;-80
2023/01/09 07:08:26;;;;;;;93.93;56.27;;;;;;;2.29;63.56;100017.22;5065468;28;20028;-80
2023/01/09 07:10:52;;;;;;;86.43;55.73;;;;;;;1.29;63.33;99851.03;5066827;28;20020;-80
2023/01/09 07:13:17;;;;;;;97.17;57.17;;;;;;;2.48;63.13;100056.63;5070416;28;20070;-80
2023/01/09 07:15:43;;;;;;;89.70;55.00;;;;;;;1.82;63.13;99912.16;5064968;28;20063;-80
2023/01/09 07:18:08;;;;;;;85.27;52.83;;;;;;;1.84;62.98;99896.44;5069545;28;20085;-80
2023/01/09 07:20:34;;;;;;;86.70;55.23;;;;;;;2.49;63.00;99994.91;5064164;28;20040;-80
2023/01/09 07:22:59;;;;;;;78.23;51.10;;;;;;;2.61;62.87;100003.56;5068911;28;20028;-79
2023/01/09 07:25:24;;;;;;;79.47;53.47;;;;;;;2.51;62.43;99985.19;5069432;28;20029;-79
2023/01/09 07:27:50;;;;;;;82.63;52.10;;;;;;;2.78;62.71;100037.84;5065889;28;20032;-80
2023/01/09 07:30:16;;;;;;;82.30;53.47;;;;;;;2.75;62.88;100084.19;5069125;28;20024;-80
2023/01/09 07:32:41;;;;;;;72.70;49.53;;;;;;;2.57;62.97;99996.91;5070630;28;20028;-80
2023/01/09 07:35:07;;;;;;;81.10;53.17;;;;;;;2.05;63.00;99905.25;5066565;28;20024;-80
2023/01/09 07:37:33;;;;;;;88.00;53.73;;;;;;;2.58;62.60;99978.56;5068872;28;20398;-79
2023/01/09 07:39:59;;;;;;;74.17;50.20;;;;;;;2.49;63.02;99964.44;5068555;28;20027;-80
2023/01/09 07:42:24;;;;;;;81.17;50.20;;;;;;;2.82;63.08;99996.72;5067403;28;20029;-80
2023/01/09 07:44:50;;;;;;;75.90;49.87;;;;;;;3.09;63.03;100019.88;5070797;28;20033;-80
2023/01/09 07:47:15;;;;;;;75.97;49.00;;;;;;;3.16;63.38;100015.84;5067081;28;20032;-80
2023/01/09 07:49:41;;;;;;;77.93;51.23;;;;;;;2.62;63.07;99906.16;5070094;28;20478;-80
2023/01/09 07:52:06;;;;;;;73.20;46.20;;;;;;;2.99;63.12;99956.31;5069211;28;20039;-80
2023/01/09 07:54:32;;;;;;;74.17;46.73;;;;;;;3.44;62.71;100014.50;5073399;28;20043;-80
2023/01/09 07:56:57;;;;;;;78.77;49.20;;;;;;;3.04;63.25;99960.22;5075066;28;20039;-80
2023/01/09 07:59:23;;;;;;;88.00;54.27;;;;;;;2.96;62.95;99917.41;5076480;28;20052;-79
2023/01/09 08:01:49;;;;;;;91.60;59.03;;;;;;;3.44;63.11;99991.84;5075306;28;20028;-80
2023/01/09 08:04:14;;;;;;;93.97;57.30;;;;;;;3.19;63.00;99924.28;5074573;28;20032;-80
2023/01/09 08:06:39;;;;;;;95.37;56.77;;;;;;;3.48;62.97;99955.88;5075779;28;20029;-79
2023/01/09 08:09:05;;;;;;;93.13;53.87;;;;;;;3.59;63.27;99966.28;5076032;28;20024;-79
2023/01/09 08:11:31;;;;;;;79.53;48.70;;;;;;;3.99;63.18;100010.94;5070281;28;20058;-80
2023/01/09 08:13:56;;;;;;;81.40;49.73;;;;;;;3.89;63.01;99983.06;5070937;28;20112;-80
2023/01/09 08:16:22;;;;;;;63.17;35.40;;;;;;;4.05;63.47;99992.16;5074156;28;20059;-80
2023/01/09 08:18:47;;;;;;;59.20;31.40;;;;;;;3.17;63.50;99847.91;5072229;28;20032;-80
2023/01/09 08:21:13;;;;;;;35.20;23.13;;;;;;;3.94;63.93;99957.41;5061543;28;20533;-80
2023/01/09 08:23:38;;;;;;;29.57;15.60;;;;;;;3.58;64.24;99888.09;5064567;28;20081;-81
2023/01/09 08:26:04;;;;;;;32.20;17.70;;;;;;;4.01;64.68;99937.66;5072748;28;20020;-81
2023/01/09 08:28:30;;;;;;;21.37;15.00;;;;;;;3.64;64.60;99870.16;5071796;28;20048;-80
2023/01/09 08:30:55;;;;;;;22.57;15.23;;;;;;;3.89;64.75;99905.53;5074130;28;20028;-80
2023/01/09 08:33:21;;;;;;;22.03;14.23;;;;;;;3.48;64.36;99814.94;5062570;28;20024;-79
2023/01/09 08:35:47;;;;;;;23.33;15.37;;;;;;;4.28;64.34;99958.06;5058412;28;20020;-80
2023/01/09 08:38:13;;;;;;;20.47;13.37;;;;;;;3.63;64.46;99855.44;5068456;28;20024;-80
2023/01/09 08:40:38;;;;;;;23.80;16.60;;;;;;;4.28;64.61;99932.75;5064067;28;20024;-80
2023/01/09 08:48:32;;;;;;;26.03;16.40;;;;;;;4.22;64.99;99912.38;5059482;28;20040;-80
2023/01/09 08:50:58;;;;;;;25.17;16.20;;;;;;;4.38;65.18;99938.88;5067582;28;20013;-80
2023/01/09 08:53:23;;;;;;;30.80;17.50;;;;;;;3.22;64.93;99730.13;5067031;28;20025;-80
2023/01/09 08:55:48;;;;;;;32.23;18.97;;;;;;;4.80;65.12;99991.16;5061895;28;20013;-78
2023/01/09 08:58:14;;;;;;;31.77;20.13;;;;;;;4.53;65.44;99941.19;5063730;28;20111;-80
2023/01/09 09:00:40;;;;;;;27.17;18.17;;;;;;;3.77;65.42;99849.09;5062562;28;20078;-80
2023/01/09 09:03:05;;;;;;;31.97;18.10;;;;;;;4.45;65.81;99933.94;5063239;28;20414;-80
2023/01/09 09:05:31;;;;;;;29.83;18.07;;;;;;;4.89;65.62;99976.47;5066558;28;20020;-80
2023/01/09 09:07:58;;;;;;;27.80;18.00;;;;;;;4.71;65.85;99943.06;5064645;28;20501;-80
2023/01/09 09:10:26;;;;;;;29.93;18.67;;;;;;;4.63;65.95;99928.97;5065528;28;20124;-80
2023/01/09 09:12:54;;;;;;;35.13;21.63;;;;;;;4.92;66.21;99963.09;5053766;28;20079;-80
2023/01/09 09:15:23;;;;;;;32.33;21.17;;;;;;;4.21;66.18;99850.59;5067579;28;20020;-80
2023/01/09 09:18:00;;;;;;;41.63;25.10;;;;;;;4.84;66.13;99914.06;5068391;28;20033;-80
2023/01/09 09:20:28;;;;;;;32.60;20.77;;;;;;;5.05;66.22;99938.38;5060977;28;20043;-80
2023/01/09 09:22:54;;;;;;;29.33;20.77;;;;;;;4.36;65.97;99806.63;5073815;28;20031;-80
2023/01/09 09:25:19;;;;;;;42.40;29.83;;;;;;;5.21;65.86;99937.88;5064524;28;21097;-80
2023/01/09 09:27:45;;;;;;;33.10;22.43;;;;;;;4.88;66.08;99899.75;5068230;28;20024;-80
2023/01/09 09:30:15;;;;;;;33.43;23.83;;;;;;;4.86;66.36;99877.31;5065869;28;20089;-80
2023/01/09 09:32:40;;;;;;;31.77;22.90;;;;;;;5.14;66.05;99899.25;5067538;28;20028;-80
2023/01/09 09:35:07;;;;;;;32.90;23.33;;;;;;;5.24;66.34;99921.09;5068908;28;20073;-80
2023/01/09 09:37:32;;;;;;;37.30;26.53;;;;;;;4.90;66.42;99858.59;5072321;28;20028;-80
2023/01/09 09:39:58;;;;;;;32.13;21.20;;;;;;;4.41;66.41;99784.38;5064979;28;20038;-80
2023/01/09 09:45:40;;;;;;;40.33;26.67;;;;;;;5.35;66.45;99905.25;5066374;28;20046;-80
2023/01/09 09:48:35;;;;;;;32.27;22.50;;;;;;;5.34;66.35;99896.56;5067251;28;20544;-80
2023/01/09 09:51:08;;;;;;;31.07;21.93;;;;;;;5.36;66.52;99901.69;5064202;28;20108;-80
2023/01/09 09:53:49;;;;;;;36.13;23.80;;;;;;;5.37;66.86;99901.53;5067765;28;20039;-80
2023/01/09 09:56:20;;;;;;;31.40;23.67;;;;;;;4.61;66.38;99803.59;5047324;28;20498;-80
2023/01/09 09:58:52;;;;;;;35.13;24.80;;;;;;;5.44;66.91;99880.88;5055967;28;20036;-80
2023/01/09 10:01:21;;;;;;;;;;;;;;;5.34;67.88;99878.25;5062506;28;20061;-80
2023/01/09 10:03:50;;;;;;;41.70;29.43;;;;;;;4.97;66.53;99815.22;5062949;28;19920;-80
2023/01/09 10:06:27;;;;;;;47.30;33.90;;;;;;;5.49;66.92;99875.22;5046947;28;20537;-80
2023/01/09 10:08:52;;;;;;;41.27;30.23;;;;;;;5.56;66.79;99881.56;5049689;28;20074;-80
2023/01/09 10:11:27;;;;;;;35.10;24.53;;;;;;;5.33;66.45;99829.47;5050168;28;20020;-80
2023/01/09 10:14:05;;;;;;;39.43;29.63;;;;;;;5.11;66.58;99800.91;5049665;28;20033;-80
2023/01/09 10:16:36;;;;;;;42.33;28.97;;;;;;;5.61;66.46;99872.34;5050736;28;20051;-80
2023/01/09 10:19:11;;;;;;;41.55;29.80;;;;;;;3.40;66.68;99538.09;5049300;28;20074;-80
2023/01/09 10:21:56;;;;;;;43.70;32.10;;;;;;;4.73;66.67;99781.59;5046480;28;20112;-80
2023/01/09 10:24:36;;;;;;;53.90;37.07;;;;;;;5.09;66.68;99784.53;5045224;28;20020;-79
2023/01/09 10:27:15;;;;;;;53.60;38.27;;;;;;;5.23;66.81;99814.72;5049467;28;20020;-79
2023/01/09 10:30:11;;;;;;;51.23;37.50;;;;;;;5.49;67.37;99862.97;5034675;28;21592;-80
2023/01/09 10:32:50;;;;;;;60.30;41.63;;;;;;;5.48;67.06;99834.28;5040907;28;20049;-80
2023/01/09 10:35:21;;;;;;;59.07;42.03;;;;;;;5.66;66.68;99861.44;5039225;28;20075;-80
2023/01/09 10:37:52;;;;;;;65.88;43.70;;;;;;;4.88;66.80;99741.97;5042626;28;20029;-80
2023/01/09 10:40:33;;;;;;;60.87;41.60;;;;;;;5.35;66.83;99803.16;5043189;28;20232;-80
2023/01/09 10:43:12;;;;;;;48.87;32.80;;;;;;;5.00;66.94;99760.00;5046802;28;20025;-80
2023/01/09 10:45:45;;;;;;;71.80;45.07;;;;;;;5.06;66.59;99748.97;5051789;28;20009;-80
2023/01/09 10:48:25;;;;;;;74.03;48.87;;;;;;;5.11;66.84;99741.53;5046310;28;20056;-80
2023/01/09 10:50:53;;;;;;;67.07;44.00;;;;;;;5.21;66.83;99741.56;5045974;28;20025;-80
2023/01/09 10:53:22;;;;;;;74.60;49.30;;;;;;;5.22;67.02;99758.09;5043585;28;20414;-80
2023/01/09 10:55:53;;;;;;;74.37;45.73;;;;;;;5.87;66.83;99846.38;5045159;28;20064;-80
2023/01/09 10:58:21;;;;;;;64.50;42.08;;;;;;;5.90;66.86;99842.69;5064259;28;20025;-80
2023/01/09 11:00:48;;;;;;;79.23;49.67;;;;;;;5.59;66.51;99782.59;5070019;28;20505;-80
2023/01/09 11:03:16;;;;;;;69.00;44.67;;;;;;;5.93;66.95;99834.53;5057546;28;20029;-80
2023/01/09 11:05:43;;;;;;;68.20;43.30;;;;;;;5.28;66.87;99710.44;5062309;28;20053;-80
2023/01/09 11:08:10;;;;;;;58.13;39.10;;;;;;;6.02;67.06;99833.72;5064486;28;20115;-80
2023/01/09 11:11:00;;;;;;;50.53;33.60;;;;;;;5.98;67.42;99825.31;5045471;28;20029;-80
2023/01/09 11:13:28;;;;;;;46.50;34.20;;;;;;;5.80;66.78;99795.50;5042349;28;20538;-80
2023/01/09 11:16:07;;;;;;;42.53;31.63;;;;;;;6.05;67.23;99822.97;5046061;28;20098;-80
2023/01/09 11:18:37;;;;;;;42.77;32.23;;;;;;;5.42;67.33;99737.00;5048973;28;20029;-80
2023/01/09 11:21:40;;;;;;;43.73;31.27;;;;;;;6.03;67.49;99825.72;5052414;28;20047;-80
2023/01/09 11:24:18;;;;;;;39.08;30.02;;;;;;;5.51;67.23;99726.66;5038266;28;20032;-79
2023/01/09 11:26:48;;;;;;;40.77;30.17;;;;;;;5.84;67.25;99782.94;5047755;28;20033;-80
2023/01/09 11:29:17;;;;;;;42.60;30.27;;;;;;;5.80;66.87;99764.06;5047939;28;20025;-80
2023/01/09 11:31:52;;;;;;;54.40;38.87;;;;;;;5.79;67.14;99786.00;5052902;28;20112;-80
2023/01/09 11:34:23;;;;;;;47.70;34.23;;;;;;;6.07;67.04;99825.44;5051829;28;20520;-80
2023/01/09 11:36:51;;;;;;;49.40;35.07;;;;;;;6.17;67.27;99811.34;5054309;28;20029;-80
2023/01/09 11:39:25;;;;;;;49.50;36.47;;;;;;;5.56;67.29;99706.91;5050575;28;20059;-80
2023/01/09 11:42:01;;;;;;;46.10;34.77;;;;;;;5.03;66.89;99628.06;5048958;28;20021;-80